sensor_id;sensor_type;location;lat;lon;timestamp;P1;P2;P0
71794;PMS7003;59641;45.188;5.712;2022-07-29T00:00:53;5.75;5.75;4.00
71794;PMS7003;59641;45.188;5.712;2022-07-29T00:03:18;8.50;8.50;6.00
71794;PMS7003;59641;45.188;5.712;2022-07-29T00:05:44;5.50;5.50;3.75
71794;PMS7003;59641;45.188;5.712;2022-07-29T00:08:09;8.00;6.50;5.50
71794;PMS7003;59641;45.188;5.712;2022-07-29T00:10:35;6.75;5.00;4.00
71794;PMS7003;59641;45.188;5.712;2022-07-29T00:13:00;5.50;5.50;4.25
71794;PMS7003;59641;45.188;5.712;2022-07-29T00:15:27;6.40;6.40;5.00
71794;PMS7003;59641;45.188;5.712;2022-07-29T00:17:52;6.00;5.50;4.25
71794;PMS7003;59641;45.188;5.712;2022-07-29T00:20:18;5.00;5.00;5.00
71794;PMS7003;59641;45.188;5.712;2022-07-29T00:22:43;6.00;6.00;5.50
71794;PMS7003;59641;45.188;5.712;2022-07-29T00:25:09;5.75;5.75;4.25
71794;PMS7003;59641;45.188;5.712;2022-07-29T00:27:34;5.25;5.25;5.00
71794;PMS7003;59641;45.188;5.712;2022-07-29T00:30:01;6.25;5.00;5.00
71794;PMS7003;59641;45.188;5.712;2022-07-29T00:32:27;7.00;6.75;5.00
71794;PMS7003;59641;45.188;5.712;2022-07-29T00:34:52;6.25;6.00;4.00
71794;PMS7003;59641;45.188;5.712;2022-07-29T00:37:36;4.40;4.40;4.00
71794;PMS7003;59641;45.188;5.712;2022-07-29T00:40:02;8.00;6.75;5.00
71794;PMS7003;59641;45.188;5.712;2022-07-29T00:42:28;6.00;5.40;4.00
71794;PMS7003;59641;45.188;5.712;2022-07-29T00:44:53;6.25;4.50;4.25
71794;PMS7003;59641;45.188;5.712;2022-07-29T00:47:18;6.00;5.00;5.00
71794;PMS7003;59641;45.188;5.712;2022-07-29T00:49:44;4.00;4.00;3.00
71794;PMS7003;59641;45.188;5.712;2022-07-29T00:52:10;6.75;5.25;4.50
71794;PMS7003;59641;45.188;5.712;2022-07-29T00:54:37;3.40;3.20;2.40
71794;PMS7003;59641;45.188;5.712;2022-07-29T00:57:04;5.00;5.00;3.40
71794;PMS7003;59641;45.188;5.712;2022-07-29T00:59:31;7.80;6.00;4.80
71794;PMS7003;59641;45.188;5.712;2022-07-29T01:01:56;6.50;6.50;5.00
71794;PMS7003;59641;45.188;5.712;2022-07-29T01:04:22;5.50;5.50;4.00
71794;PMS7003;59641;45.188;5.712;2022-07-29T01:06:47;6.50;5.00;4.00
71794;PMS7003;59641;45.188;5.712;2022-07-29T01:09:14;4.60;4.60;4.20
71794;PMS7003;59641;45.188;5.712;2022-07-29T01:11:41;5.25;5.25;3.00
71794;PMS7003;59641;45.188;5.712;2022-07-29T01:14:08;5.20;5.00;4.20
71794;PMS7003;59641;45.188;5.712;2022-07-29T01:16:45;4.00;4.00;3.60
71794;PMS7003;59641;45.188;5.712;2022-07-29T01:30:56;4.00;4.00;3.00
71794;PMS7003;59641;45.188;5.712;2022-07-29T01:33:23;4.00;4.00;3.00
71794;PMS7003;59641;45.188;5.712;2022-07-29T01:36:10;6.80;6.80;5.00
71794;PMS7003;59641;45.188;5.712;2022-07-29T01:38:41;8.60;7.40;5.60
71794;PMS7003;59641;45.188;5.712;2022-07-29T01:41:11;6.00;6.00;5.00
71794;PMS7003;59641;45.188;5.712;2022-07-29T01:43:51;6.20;6.20;5.40
71794;PMS7003;59641;45.188;5.712;2022-07-29T01:46:22;6.60;6.40;5.60
71794;PMS7003;59641;45.188;5.712;2022-07-29T01:48:57;8.40;7.80;6.20
71794;PMS7003;59641;45.188;5.712;2022-07-29T01:51:34;6.80;6.80;5.80
71794;PMS7003;59641;45.188;5.712;2022-07-29T01:54:10;7.20;7.20;6.00
71794;PMS7003;59641;45.188;5.712;2022-07-29T01:56:42;8.20;7.60;6.00
71794;PMS7003;59641;45.188;5.712;2022-07-29T01:59:10;7.60;7.20;6.40
71794;PMS7003;59641;45.188;5.712;2022-07-29T02:01:37;5.60;5.00;4.00
71794;PMS7003;59641;45.188;5.712;2022-07-29T02:04:06;9.00;7.75;5.75
71794;PMS7003;59641;45.188;5.712;2022-07-29T02:06:34;5.20;5.20;5.00
71794;PMS7003;59641;45.188;5.712;2022-07-29T02:09:03;6.80;6.40;5.00
71794;PMS7003;59641;45.188;5.712;2022-07-29T02:11:31;7.20;6.00;4.60
71794;PMS7003;59641;45.188;5.712;2022-07-29T02:13:59;5.00;5.00;4.20
71794;PMS7003;59641;45.188;5.712;2022-07-29T02:16:26;6.80;6.80;5.00
71794;PMS7003;59641;45.188;5.712;2022-07-29T02:18:56;5.40;5.40;4.60
71794;PMS7003;59641;45.188;5.712;2022-07-29T02:21:24;5.00;5.00;5.00
71794;PMS7003;59641;45.188;5.712;2022-07-29T02:23:51;7.50;5.00;4.25
71794;PMS7003;59641;45.188;5.712;2022-07-29T02:26:19;5.20;4.60;4.00
71794;PMS7003;59641;45.188;5.712;2022-07-29T02:28:48;5.80;5.20;5.00
71794;PMS7003;59641;45.188;5.712;2022-07-29T02:31:16;6.00;6.00;5.00
71794;PMS7003;59641;45.188;5.712;2022-07-29T02:33:46;8.20;6.80;5.80
71794;PMS7003;59641;45.188;5.712;2022-07-29T02:36:14;5.00;5.00;4.00
71794;PMS7003;59641;45.188;5.712;2022-07-29T02:38:41;6.20;6.20;5.80
71794;PMS7003;59641;45.188;5.712;2022-07-29T02:41:20;6.50;6.50;5.75
71794;PMS7003;59641;45.188;5.712;2022-07-29T02:43:53;5.50;4.75;4.25
71794;PMS7003;59641;45.188;5.712;2022-07-29T02:46:25;5.60;5.60;4.80
71794;PMS7003;59641;45.188;5.712;2022-07-29T02:48:56;3.40;3.40;3.20
71794;PMS7003;59641;45.188;5.712;2022-07-29T02:51:40;3.50;3.50;2.75
71794;PMS7003;59641;45.188;5.712;2022-07-29T02:54:16;6.80;6.80;5.60
71794;PMS7003;59641;45.188;5.712;2022-07-29T02:56:47;6.60;6.00;5.00
71794;PMS7003;59641;45.188;5.712;2022-07-29T02:59:18;3.60;3.60;2.00
71794;PMS7003;59641;45.188;5.712;2022-07-29T03:01:48;5.20;5.20;4.00
71794;PMS7003;59641;45.188;5.712;2022-07-29T03:04:15;6.00;6.00;5.20
71794;PMS7003;59641;45.188;5.712;2022-07-29T03:06:44;7.60;7.60;4.80
71794;PMS7003;59641;45.188;5.712;2022-07-29T03:09:11;7.00;6.60;5.40
71794;PMS7003;59641;45.188;5.712;2022-07-29T03:11:38;5.00;5.00;4.80
71794;PMS7003;59641;45.188;5.712;2022-07-29T03:14:04;6.00;6.00;4.00
71794;PMS7003;59641;45.188;5.712;2022-07-29T03:16:30;8.20;7.00;6.00
71794;PMS7003;59641;45.188;5.712;2022-07-29T03:18:58;8.00;8.00;6.00
71794;PMS7003;59641;45.188;5.712;2022-07-29T03:21:24;6.50;6.50;5.25
71794;PMS7003;59641;45.188;5.712;2022-07-29T03:23:49;5.75;5.75;5.00
71794;PMS7003;59641;45.188;5.712;2022-07-29T03:26:15;6.25;6.00;4.75
71794;PMS7003;59641;45.188;5.712;2022-07-29T03:28:40;6.00;6.00;5.00
71794;PMS7003;59641;45.188;5.712;2022-07-29T03:31:05;8.00;7.00;6.00
71794;PMS7003;59641;45.188;5.712;2022-07-29T03:33:31;4.25;4.00;2.50
71794;PMS7003;59641;45.188;5.712;2022-07-29T03:35:56;5.00;4.50;3.75
71794;PMS7003;59641;45.188;5.712;2022-07-29T03:38:23;7.00;6.25;5.00
71794;PMS7003;59641;45.188;5.712;2022-07-29T03:40:53;7.00;6.50;5.00
71794;PMS7003;59641;45.188;5.712;2022-07-29T03:43:23;6.80;5.80;4.60
71794;PMS7003;59641;45.188;5.712;2022-07-29T03:45:53;4.80;4.00;4.00
71794;PMS7003;59641;45.188;5.712;2022-07-29T03:48:21;5.60;5.20;4.60
71794;PMS7003;59641;45.188;5.712;2022-07-29T03:50:49;7.50;7.50;6.00
71794;PMS7003;59641;45.188;5.712;2022-07-29T03:53:15;3.75;3.75;3.00
71794;PMS7003;59641;45.188;5.712;2022-07-29T03:55:43;5.00;5.00;5.00
71794;PMS7003;59641;45.188;5.712;2022-07-29T03:58:11;7.00;6.20;5.60
71794;PMS7003;59641;45.188;5.712;2022-07-29T04:00:39;7.80;6.80;5.80
71794;PMS7003;59641;45.188;5.712;2022-07-29T04:03:06;6.00;6.00;5.00
71794;PMS7003;59641;45.188;5.712;2022-07-29T04:05:33;6.20;5.40;4.20
71794;PMS7003;59641;45.188;5.712;2022-07-29T04:07:59;7.00;6.75;6.00
71794;PMS7003;59641;45.188;5.712;2022-07-29T04:10:24;7.50;7.25;6.25
71794;PMS7003;59641;45.188;5.712;2022-07-29T04:12:49;8.25;7.00;5.00
71794;PMS7003;59641;45.188;5.712;2022-07-29T04:15:15;5.00;5.00;4.25
71794;PMS7003;59641;45.188;5.712;2022-07-29T04:17:40;6.25;6.25;5.50
71794;PMS7003;59641;45.188;5.712;2022-07-29T04:20:06;7.00;5.50;4.50
71794;PMS7003;59641;45.188;5.712;2022-07-29T04:22:32;10.25;8.25;6.25
71794;PMS7003;59641;45.188;5.712;2022-07-29T04:24:57;8.00;6.75;5.75
71794;PMS7003;59641;45.188;5.712;2022-07-29T04:27:23;9.75;9.25;7.50
71794;PMS7003;59641;45.188;5.712;2022-07-29T04:29:49;8.25;6.50;5.75
71794;PMS7003;59641;45.188;5.712;2022-07-29T04:32:14;9.50;8.25;7.00
71794;PMS7003;59641;45.188;5.712;2022-07-29T04:34:39;7.00;6.50;5.00
71794;PMS7003;59641;45.188;5.712;2022-07-29T04:37:05;6.75;6.75;5.00
71794;PMS7003;59641;45.188;5.712;2022-07-29T04:39:30;10.25;8.75;7.75
71794;PMS7003;59641;45.188;5.712;2022-07-29T04:41:56;7.75;7.00;5.25
71794;PMS7003;59641;45.188;5.712;2022-07-29T04:44:21;8.25;7.25;6.00
71794;PMS7003;59641;45.188;5.712;2022-07-29T04:46:47;6.50;5.50;5.00
71794;PMS7003;59641;45.188;5.712;2022-07-29T04:49:12;5.00;5.00;4.50
71794;PMS7003;59641;45.188;5.712;2022-07-29T04:51:38;6.00;6.00;5.00
71794;PMS7003;59641;45.188;5.712;2022-07-29T04:54:03;6.50;6.50;4.00
71794;PMS7003;59641;45.188;5.712;2022-07-29T04:56:28;5.75;5.50;4.00
71794;PMS7003;59641;45.188;5.712;2022-07-29T04:58:54;5.50;5.50;3.50
71794;PMS7003;59641;45.188;5.712;2022-07-29T05:01:19;5.50;5.50;5.00
71794;PMS7003;59641;45.188;5.712;2022-07-29T05:03:45;9.25;9.00;7.75
71794;PMS7003;59641;45.188;5.712;2022-07-29T05:06:11;8.00;6.00;5.50
71794;PMS7003;59641;45.188;5.712;2022-07-29T05:08:36;6.00;5.00;4.00
71794;PMS7003;59641;45.188;5.712;2022-07-29T05:11:02;5.00;4.75;4.00
71794;PMS7003;59641;45.188;5.712;2022-07-29T05:13:28;6.00;6.00;5.00
71794;PMS7003;59641;45.188;5.712;2022-07-29T05:15:54;7.50;7.50;6.75
71794;PMS7003;59641;45.188;5.712;2022-07-29T05:18:19;7.50;6.75;5.00
71794;PMS7003;59641;45.188;5.712;2022-07-29T05:20:45;8.50;6.50;5.50
71794;PMS7003;59641;45.188;5.712;2022-07-29T05:23:10;10.00;8.50;5.50
71794;PMS7003;59641;45.188;5.712;2022-07-29T05:25:37;7.60;7.40;5.80
71794;PMS7003;59641;45.188;5.712;2022-07-29T05:28:03;9.50;8.50;6.50
71794;PMS7003;59641;45.188;5.712;2022-07-29T05:30:28;7.00;7.00;6.00
71794;PMS7003;59641;45.188;5.712;2022-07-29T05:32:54;8.00;8.00;5.00
71794;PMS7003;59641;45.188;5.712;2022-07-29T05:35:19;9.75;7.75;6.00
71794;PMS7003;59641;45.188;5.712;2022-07-29T05:37:45;8.25;8.25;6.50
71794;PMS7003;59641;45.188;5.712;2022-07-29T05:40:10;5.00;5.00;4.50
71794;PMS7003;59641;45.188;5.712;2022-07-29T05:42:36;10.75;8.00;6.00
71794;PMS7003;59641;45.188;5.712;2022-07-29T05:45:02;7.75;6.75;5.25
71794;PMS7003;59641;45.188;5.712;2022-07-29T05:47:28;4.75;4.75;4.00
71794;PMS7003;59641;45.188;5.712;2022-07-29T05:49:53;6.25;6.25;6.00
71794;PMS7003;59641;45.188;5.712;2022-07-29T05:52:19;7.50;7.25;6.50
71794;PMS7003;59641;45.188;5.712;2022-07-29T05:54:44;7.00;7.00;6.25
71794;PMS7003;59641;45.188;5.712;2022-07-29T05:57:16;8.00;8.00;7.00
71794;PMS7003;59641;45.188;5.712;2022-07-29T05:59:43;8.40;7.80;5.00
71794;PMS7003;59641;45.188;5.712;2022-07-29T06:02:08;7.00;6.25;5.00
71794;PMS7003;59641;45.188;5.712;2022-07-29T06:04:34;7.50;6.50;5.50
71794;PMS7003;59641;45.188;5.712;2022-07-29T06:06:59;7.00;6.00;5.00
71794;PMS7003;59641;45.188;5.712;2022-07-29T06:09:24;7.25;7.00;6.00
71794;PMS7003;59641;45.188;5.712;2022-07-29T06:11:51;6.20;6.20;5.80
71794;PMS7003;59641;45.188;5.712;2022-07-29T06:14:17;8.20;7.00;6.00
71794;PMS7003;59641;45.188;5.712;2022-07-29T06:16:42;8.00;7.50;6.00
71794;PMS7003;59641;45.188;5.712;2022-07-29T06:19:08;7.00;7.00;6.00
71794;PMS7003;59641;45.188;5.712;2022-07-29T06:21:34;6.00;6.00;5.00
71794;PMS7003;59641;45.188;5.712;2022-07-29T06:23:59;6.00;6.00;5.00
71794;PMS7003;59641;45.188;5.712;2022-07-29T06:26:24;8.00;8.00;5.00
71794;PMS7003;59641;45.188;5.712;2022-07-29T06:28:50;9.50;8.50;7.50
71794;PMS7003;59641;45.188;5.712;2022-07-29T06:31:15;8.00;6.75;5.25
71794;PMS7003;59641;45.188;5.712;2022-07-29T06:33:41;6.50;6.50;5.00
71794;PMS7003;59641;45.188;5.712;2022-07-29T06:36:06;6.25;6.25;5.50
71794;PMS7003;59641;45.188;5.712;2022-07-29T06:38:32;9.50;9.25;8.00
71794;PMS7003;59641;45.188;5.712;2022-07-29T06:40:58;7.80;7.00;7.00
71794;PMS7003;59641;45.188;5.712;2022-07-29T06:43:45;10.00;8.25;7.00
71794;PMS7003;59641;45.188;5.712;2022-07-29T06:46:15;8.00;7.50;7.00
71794;PMS7003;59641;45.188;5.712;2022-07-29T06:48:42;7.50;7.50;6.25
71794;PMS7003;59641;45.188;5.712;2022-07-29T06:51:08;8.75;8.75;7.50
71794;PMS7003;59641;45.188;5.712;2022-07-29T06:53:35;9.80;9.20;8.00
71794;PMS7003;59641;45.188;5.712;2022-07-29T06:56:01;9.75;9.00;9.00
71794;PMS7003;59641;45.188;5.712;2022-07-29T06:58:27;9.00;7.00;5.50
71794;PMS7003;59641;45.188;5.712;2022-07-29T07:00:53;9.40;8.80;7.00
71794;PMS7003;59641;45.188;5.712;2022-07-29T07:03:20;7.40;7.40;6.60
71794;PMS7003;59641;45.188;5.712;2022-07-29T07:05:46;7.25;7.25;6.75
71794;PMS7003;59641;45.188;5.712;2022-07-29T07:08:12;10.75;10.00;7.50
71794;PMS7003;59641;45.188;5.712;2022-07-29T07:10:38;9.75;7.75;6.00
71794;PMS7003;59641;45.188;5.712;2022-07-29T07:13:03;8.20;8.00;7.00
71794;PMS7003;59641;45.188;5.712;2022-07-29T07:15:30;7.00;6.00;4.00
71794;PMS7003;59641;45.188;5.712;2022-07-29T07:17:56;7.00;7.00;6.00
71794;PMS7003;59641;45.188;5.712;2022-07-29T07:20:22;6.00;6.00;4.80
71794;PMS7003;59641;45.188;5.712;2022-07-29T07:22:49;5.40;5.20;4.00
71794;PMS7003;59641;45.188;5.712;2022-07-29T07:25:14;5.50;5.25;4.50
71794;PMS7003;59641;45.188;5.712;2022-07-29T07:27:40;6.00;6.00;4.50
71794;PMS7003;59641;45.188;5.712;2022-07-29T07:30:05;8.25;5.00;4.25
71794;PMS7003;59641;45.188;5.712;2022-07-29T07:32:35;9.20;9.00;7.80
71794;PMS7003;59641;45.188;5.712;2022-07-29T07:35:02;10.75;8.75;7.25
71794;PMS7003;59641;45.188;5.712;2022-07-29T07:37:28;7.00;7.00;5.40
71794;PMS7003;59641;45.188;5.712;2022-07-29T07:39:54;6.75;4.50;3.75
71794;PMS7003;59641;45.188;5.712;2022-07-29T07:42:19;5.50;5.50;5.00
71794;PMS7003;59641;45.188;5.712;2022-07-29T07:44:45;10.25;7.75;6.25
71794;PMS7003;59641;45.188;5.712;2022-07-29T07:47:11;9.00;9.00;8.00
71794;PMS7003;59641;45.188;5.712;2022-07-29T07:49:37;14.80;11.60;8.20
71794;PMS7003;59641;45.188;5.712;2022-07-29T07:52:03;10.00;10.00;7.50
71794;PMS7003;59641;45.188;5.712;2022-07-29T07:54:29;10.00;10.00;8.00
71794;PMS7003;59641;45.188;5.712;2022-07-29T07:56:54;11.00;9.75;8.00
71794;PMS7003;59641;45.188;5.712;2022-07-29T07:59:19;13.25;13.25;10.00
71794;PMS7003;59641;45.188;5.712;2022-07-29T08:01:45;9.00;9.00;7.50
71794;PMS7003;59641;45.188;5.712;2022-07-29T08:04:10;10.25;7.50;6.50
71794;PMS7003;59641;45.188;5.712;2022-07-29T08:06:36;11.00;11.00;9.00
71794;PMS7003;59641;45.188;5.712;2022-07-29T08:09:03;14.75;14.00;11.75
71794;PMS7003;59641;45.188;5.712;2022-07-29T08:11:28;12.60;11.60;9.20
71794;PMS7003;59641;45.188;5.712;2022-07-29T08:13:54;12.00;11.75;9.25
71794;PMS7003;59641;45.188;5.712;2022-07-29T08:16:20;10.75;10.75;8.25
71794;PMS7003;59641;45.188;5.712;2022-07-29T08:18:45;10.75;10.50;8.00
71794;PMS7003;59641;45.188;5.712;2022-07-29T08:21:11;9.75;9.75;8.75
71794;PMS7003;59641;45.188;5.712;2022-07-29T08:23:38;9.75;8.50;7.50
71794;PMS7003;59641;45.188;5.712;2022-07-29T08:26:07;8.75;7.75;6.25
71794;PMS7003;59641;45.188;5.712;2022-07-29T08:28:36;10.75;10.00;8.00
71794;PMS7003;59641;45.188;5.712;2022-07-29T08:31:03;10.60;9.00;7.40
71794;PMS7003;59641;45.188;5.712;2022-07-29T08:33:28;13.50;11.75;9.50
71794;PMS7003;59641;45.188;5.712;2022-07-29T08:35:54;11.25;8.50;7.00
71794;PMS7003;59641;45.188;5.712;2022-07-29T08:38:19;9.75;8.00;6.75
71794;PMS7003;59641;45.188;5.712;2022-07-29T08:40:45;8.75;7.25;6.00
71794;PMS7003;59641;45.188;5.712;2022-07-29T08:43:11;11.40;9.40;7.60
71794;PMS7003;59641;45.188;5.712;2022-07-29T08:45:47;8.20;8.20;6.20
71794;PMS7003;59641;45.188;5.712;2022-07-29T08:48:15;10.00;8.00;7.00
71794;PMS7003;59641;45.188;5.712;2022-07-29T08:50:43;11.50;9.75;8.00
71794;PMS7003;59641;45.188;5.712;2022-07-29T08:53:13;11.75;10.25;8.00
71794;PMS7003;59641;45.188;5.712;2022-07-29T08:55:44;10.50;9.50;7.25
71794;PMS7003;59641;45.188;5.712;2022-07-29T08:58:12;9.60;9.40;7.00
71794;PMS7003;59641;45.188;5.712;2022-07-29T09:00:41;10.75;10.00;8.50
71794;PMS7003;59641;45.188;5.712;2022-07-29T09:03:07;12.50;9.00;8.00
71794;PMS7003;59641;45.188;5.712;2022-07-29T09:05:37;16.75;15.00;10.75
71794;PMS7003;59641;45.188;5.712;2022-07-29T09:08:06;12.75;12.75;9.75
71794;PMS7003;59641;45.188;5.712;2022-07-29T09:10:32;12.00;11.50;9.50
71794;PMS7003;59641;45.188;5.712;2022-07-29T09:12:57;12.75;11.75;9.00
71794;PMS7003;59641;45.188;5.712;2022-07-29T09:15:23;13.00;13.00;10.50
71794;PMS7003;59641;45.188;5.712;2022-07-29T09:17:49;16.75;14.00;10.00
71794;PMS7003;59641;45.188;5.712;2022-07-29T09:20:16;13.00;12.25;10.00
71794;PMS7003;59641;45.188;5.712;2022-07-29T09:22:43;15.75;14.25;11.75
71794;PMS7003;59641;45.188;5.712;2022-07-29T09:25:11;13.25;12.25;10.25
71794;PMS7003;59641;45.188;5.712;2022-07-29T09:27:37;12.75;11.75;10.00
71794;PMS7003;59641;45.188;5.712;2022-07-29T09:32:30;14.25;14.00;11.00
71794;PMS7003;59641;45.188;5.712;2022-07-29T09:37:42;13.20;13.20;10.60
71794;PMS7003;59641;45.188;5.712;2022-07-29T09:40:12;15.60;13.40;9.80
71794;PMS7003;59641;45.188;5.712;2022-07-29T09:42:39;15.00;14.50;10.25
71794;PMS7003;59641;45.188;5.712;2022-07-29T09:45:04;13.75;13.00;10.00
71794;PMS7003;59641;45.188;5.712;2022-07-29T09:47:40;11.75;11.75;10.00
71794;PMS7003;59641;45.188;5.712;2022-07-29T09:50:10;18.50;17.25;12.00
71794;PMS7003;59641;45.188;5.712;2022-07-29T09:52:44;13.75;13.00;9.50
71794;PMS7003;59641;45.188;5.712;2022-07-29T09:55:11;13.75;11.25;9.00
71794;PMS7003;59641;45.188;5.712;2022-07-29T09:57:37;15.50;14.25;12.00
71794;PMS7003;59641;45.188;5.712;2022-07-29T10:02:32;12.00;12.00;10.00
71794;PMS7003;59641;45.188;5.712;2022-07-29T10:05:02;15.25;15.25;11.00
71794;PMS7003;59641;45.188;5.712;2022-07-29T10:07:49;13.75;13.00;10.00
71794;PMS7003;59641;45.188;5.712;2022-07-29T10:10:27;12.75;12.75;10.25
71794;PMS7003;59641;45.188;5.712;2022-07-29T10:12:55;15.25;14.00;11.00
71794;PMS7003;59641;45.188;5.712;2022-07-29T10:15:25;13.25;13.25;10.25
71794;PMS7003;59641;45.188;5.712;2022-07-29T10:17:53;14.50;14.50;11.50
71794;PMS7003;59641;45.188;5.712;2022-07-29T10:20:21;15.50;14.00;10.25
71794;PMS7003;59641;45.188;5.712;2022-07-29T10:22:47;18.00;16.00;12.00
71794;PMS7003;59641;45.188;5.712;2022-07-29T10:25:15;21.25;18.75;15.00
71794;PMS7003;59641;45.188;5.712;2022-07-29T10:27:41;13.50;13.00;10.75
71794;PMS7003;59641;45.188;5.712;2022-07-29T10:30:07;14.50;12.00;10.50
71794;PMS7003;59641;45.188;5.712;2022-07-29T10:35:31;15.50;14.00;13.00
71794;PMS7003;59641;45.188;5.712;2022-07-29T10:43:52;13.25;13.25;10.00
71794;PMS7003;59641;45.188;5.712;2022-07-29T10:46:24;13.25;13.00;10.00
71794;PMS7003;59641;45.188;5.712;2022-07-29T10:52:21;10.25;10.25;9.00
71794;PMS7003;59641;45.188;5.712;2022-07-29T10:57:30;12.25;12.25;11.25
71794;PMS7003;59641;45.188;5.712;2022-07-29T11:05:04;18.25;16.75;13.75
71794;PMS7003;59641;45.188;5.712;2022-07-29T11:07:31;18.75;18.75;15.00
71794;PMS7003;59641;45.188;5.712;2022-07-29T11:15:02;16.25;15.25;13.00
71794;PMS7003;59641;45.188;5.712;2022-07-29T11:23:22;18.75;17.00;13.50
71794;PMS7003;59641;45.188;5.712;2022-07-29T11:31:19;18.25;17.75;13.00
71794;PMS7003;59641;45.188;5.712;2022-07-29T11:39:41;20.25;20.00;14.50
71794;PMS7003;59641;45.188;5.712;2022-07-29T11:47:46;16.00;16.00;13.25
71794;PMS7003;59641;45.188;5.712;2022-07-29T11:50:16;17.50;16.50;12.75
71794;PMS7003;59641;45.188;5.712;2022-07-29T11:52:52;17.75;15.75;11.25
71794;PMS7003;59641;45.188;5.712;2022-07-29T11:55:19;19.25;18.75;15.50
71794;PMS7003;59641;45.188;5.712;2022-07-29T11:57:48;17.75;17.25;15.00
71794;PMS7003;59641;45.188;5.712;2022-07-29T12:02:51;16.75;16.00;14.00
71794;PMS7003;59641;45.188;5.712;2022-07-29T12:05:17;18.00;18.00;15.00
71794;PMS7003;59641;45.188;5.712;2022-07-29T12:07:43;20.00;18.75;14.25
71794;PMS7003;59641;45.188;5.712;2022-07-29T12:10:09;18.75;18.75;16.00
71794;PMS7003;59641;45.188;5.712;2022-07-29T12:12:34;19.75;18.50;14.75
71794;PMS7003;59641;45.188;5.712;2022-07-29T12:17:55;19.50;19.50;15.25
71794;PMS7003;59641;45.188;5.712;2022-07-29T12:20:30;15.50;14.75;11.00
71794;PMS7003;59641;45.188;5.712;2022-07-29T12:22:55;15.00;15.00;13.00
71794;PMS7003;59641;45.188;5.712;2022-07-29T12:25:22;15.50;15.25;12.25
71794;PMS7003;59641;45.188;5.712;2022-07-29T12:28:01;13.00;13.00;10.25
71794;PMS7003;59641;45.188;5.712;2022-07-29T12:30:45;13.50;13.00;11.50
71794;PMS7003;59641;45.188;5.712;2022-07-29T12:35:52;16.25;16.25;12.50
71794;PMS7003;59641;45.188;5.712;2022-07-29T12:38:20;19.25;18.50;13.00
71794;PMS7003;59641;45.188;5.712;2022-07-29T12:40:46;16.75;16.00;12.25
71794;PMS7003;59641;45.188;5.712;2022-07-29T12:43:17;17.50;16.25;13.75
71794;PMS7003;59641;45.188;5.712;2022-07-29T12:45:45;15.75;15.00;13.50
71794;PMS7003;59641;45.188;5.712;2022-07-29T12:48:13;18.25;16.75;13.25
71794;PMS7003;59641;45.188;5.712;2022-07-29T12:53:41;17.75;17.75;14.00
71794;PMS7003;59641;45.188;5.712;2022-07-29T12:56:42;15.00;15.00;12.25
71794;PMS7003;59641;45.188;5.712;2022-07-29T12:59:14;15.75;15.25;12.00
71794;PMS7003;59641;45.188;5.712;2022-07-29T13:01:47;12.75;12.75;11.00
71794;PMS7003;59641;45.188;5.712;2022-07-29T13:04:28;12.20;12.20;9.00
71794;PMS7003;59641;45.188;5.712;2022-07-29T13:06:59;10.50;10.50;8.00
71794;PMS7003;59641;45.188;5.712;2022-07-29T13:09:35;13.50;12.00;10.75
71794;PMS7003;59641;45.188;5.712;2022-07-29T13:12:08;14.75;12.25;11.00
71794;PMS7003;59641;45.188;5.712;2022-07-29T13:14:36;13.75;13.75;11.50
71794;PMS7003;59641;45.188;5.712;2022-07-29T13:17:03;14.00;13.25;9.50
71794;PMS7003;59641;45.188;5.712;2022-07-29T13:19:43;13.75;13.75;11.75
71794;PMS7003;59641;45.188;5.712;2022-07-29T13:22:14;14.75;14.75;10.50
71794;PMS7003;59641;45.188;5.712;2022-07-29T13:24:54;18.50;16.00;13.00
71794;PMS7003;59641;45.188;5.712;2022-07-29T13:27:22;15.75;15.75;12.75
71794;PMS7003;59641;45.188;5.712;2022-07-29T13:29:49;9.50;8.75;7.00
71794;PMS7003;59641;45.188;5.712;2022-07-29T13:32:17;15.75;14.75;11.75
71794;PMS7003;59641;45.188;5.712;2022-07-29T13:34:43;13.20;12.20;10.00
71794;PMS7003;59641;45.188;5.712;2022-07-29T13:37:09;20.75;18.75;14.75
71794;PMS7003;59641;45.188;5.712;2022-07-29T13:39:34;18.75;18.00;15.00
71794;PMS7003;59641;45.188;5.712;2022-07-29T13:42:00;17.25;17.00;13.00
71794;PMS7003;59641;45.188;5.712;2022-07-29T13:44:26;14.50;14.50;11.50
71794;PMS7003;59641;45.188;5.712;2022-07-29T13:46:51;14.75;13.00;11.00
71794;PMS7003;59641;45.188;5.712;2022-07-29T13:49:17;20.00;17.00;13.00
71794;PMS7003;59641;45.188;5.712;2022-07-29T13:51:42;16.00;15.00;13.00
71794;PMS7003;59641;45.188;5.712;2022-07-29T13:54:08;13.75;13.75;11.00
71794;PMS7003;59641;45.188;5.712;2022-07-29T13:56:33;14.25;14.25;12.25
71794;PMS7003;59641;45.188;5.712;2022-07-29T13:58:59;13.50;12.25;10.00
71794;PMS7003;59641;45.188;5.712;2022-07-29T14:01:25;11.00;11.00;10.25
71794;PMS7003;59641;45.188;5.712;2022-07-29T14:03:51;14.00;14.00;11.00
71794;PMS7003;59641;45.188;5.712;2022-07-29T14:06:16;13.50;13.50;11.00
71794;PMS7003;59641;45.188;5.712;2022-07-29T14:08:41;15.50;15.50;11.25
71794;PMS7003;59641;45.188;5.712;2022-07-29T14:11:07;12.75;12.00;9.50
71794;PMS7003;59641;45.188;5.712;2022-07-29T14:13:33;15.50;15.25;13.25
71794;PMS7003;59641;45.188;5.712;2022-07-29T14:15:58;14.50;14.50;11.75
71794;PMS7003;59641;45.188;5.712;2022-07-29T14:18:24;11.75;11.00;8.75
71794;PMS7003;59641;45.188;5.712;2022-07-29T14:20:49;13.00;12.25;9.75
71794;PMS7003;59641;45.188;5.712;2022-07-29T14:23:15;14.00;13.50;11.00
71794;PMS7003;59641;45.188;5.712;2022-07-29T14:25:41;12.75;12.75;10.50
71794;PMS7003;59641;45.188;5.712;2022-07-29T14:28:07;12.50;12.50;10.50
71794;PMS7003;59641;45.188;5.712;2022-07-29T14:30:32;13.25;13.25;10.00
71794;PMS7003;59641;45.188;5.712;2022-07-29T14:32:57;12.00;12.00;10.00
71794;PMS7003;59641;45.188;5.712;2022-07-29T14:35:23;16.50;15.75;12.50
71794;PMS7003;59641;45.188;5.712;2022-07-29T14:37:48;14.00;14.00;11.00
71794;PMS7003;59641;45.188;5.712;2022-07-29T14:40:14;15.00;13.00;10.25
71794;PMS7003;59641;45.188;5.712;2022-07-29T14:42:39;13.75;13.50;10.25
71794;PMS7003;59641;45.188;5.712;2022-07-29T14:45:05;14.50;11.75;10.00
71794;PMS7003;59641;45.188;5.712;2022-07-29T14:47:32;13.00;12.75;10.50
71794;PMS7003;59641;45.188;5.712;2022-07-29T14:49:57;14.00;13.25;10.00
71794;PMS7003;59641;45.188;5.712;2022-07-29T14:52:22;14.25;12.75;11.00
71794;PMS7003;59641;45.188;5.712;2022-07-29T14:54:48;11.00;11.00;10.00
71794;PMS7003;59641;45.188;5.712;2022-07-29T14:57:14;11.00;11.00;10.00
71794;PMS7003;59641;45.188;5.712;2022-07-29T14:59:39;12.00;12.00;9.00
71794;PMS7003;59641;45.188;5.712;2022-07-29T15:02:05;12.50;11.00;9.00
71794;PMS7003;59641;45.188;5.712;2022-07-29T15:04:30;13.25;13.25;9.75
71794;PMS7003;59641;45.188;5.712;2022-07-29T15:06:55;11.25;11.25;9.50
71794;PMS7003;59641;45.188;5.712;2022-07-29T15:09:21;13.00;13.00;11.00
71794;PMS7003;59641;45.188;5.712;2022-07-29T15:11:46;12.00;12.00;9.75
71794;PMS7003;59641;45.188;5.712;2022-07-29T15:14:12;14.50;14.00;11.00
71794;PMS7003;59641;45.188;5.712;2022-07-29T15:16:38;10.25;10.25;8.00
71794;PMS7003;59641;45.188;5.712;2022-07-29T15:19:07;10.50;9.00;8.25
71794;PMS7003;59641;45.188;5.712;2022-07-29T15:21:32;12.75;12.25;10.50
71794;PMS7003;59641;45.188;5.712;2022-07-29T15:23:58;8.25;8.25;7.00
71794;PMS7003;59641;45.188;5.712;2022-07-29T15:26:23;9.00;9.00;7.75
71794;PMS7003;59641;45.188;5.712;2022-07-29T15:28:48;8.00;8.00;7.25